createdAt,value
2019-02-23T08:41:45.550Z,416.25
2019-02-23T08:42:44.890Z,416.25
2019-02-23T08:43:44.859Z,455.63
2019-02-23T08:44:44.826Z,511.88
2019-02-23T08:45:44.795Z,551.25
2019-02-23T08:46:44.764Z,607.50
2019-02-23T08:47:45.091Z,601.88
2019-02-23T08:48:44.721Z,624.38
2019-02-23T08:49:44.668Z,675.00
2019-02-23T08:50:44.635Z,697.50
2019-02-23T08:51:44.603Z,736.88
2019-02-23T08:52:49.226Z,928.13
2019-02-23T08:53:44.541Z,973.13
2019-02-23T08:54:44.511Z,945.00
2019-02-23T08:55:44.491Z,1068.75
2019-02-23T08:56:44.660Z,1113.75
2019-02-23T08:57:44.418Z,1125.00
2019-02-23T08:58:44.386Z,1186.88
2019-02-23T08:59:44.361Z,1254.38
2019-02-23T09:00:44.327Z,1288.13
2019-02-23T09:01:44.297Z,1316.25
2019-02-23T09:02:44.265Z,1305.00
2019-02-23T09:03:44.236Z,1355.63
2019-02-23T09:04:44.202Z,1428.75
2019-02-23T09:05:44.179Z,1440.00
2019-02-23T09:06:44.147Z,1445.63
2019-02-23T09:07:44.118Z,1507.50
2019-02-23T09:08:44.215Z,1524.38
2019-02-23T09:09:44.060Z,1462.50
2019-02-23T09:10:44.027Z,1462.50
2019-02-23T09:11:43.997Z,1513.13
2019-02-23T09:12:43.970Z,1445.63
2019-02-23T09:13:43.940Z,1563.75
2019-02-23T09:14:43.911Z,1653.75
2019-02-23T09:15:43.880Z,1687.50
2019-02-23T09:16:43.850Z,1625.63
2019-02-23T09:17:43.822Z,1648.13
2019-02-23T09:18:43.789Z,1614.38
2019-02-23T09:19:43.761Z,1704.38
2019-02-23T09:20:43.729Z,1749.38
2019-02-23T09:21:43.702Z,1710.00
2019-02-23T09:22:43.674Z,1681.88
2019-02-23T09:23:43.643Z,1670.63
2019-02-23T09:24:43.615Z,1704.38
2019-02-23T09:25:43.589Z,1715.63
2019-02-23T09:26:43.559Z,1732.50
2019-02-23T09:27:43.528Z,1783.13
2019-02-23T09:28:43.503Z,1738.13
2019-02-23T09:29:43.471Z,1822.50
2019-02-23T09:30:43.444Z,1822.50
2019-02-23T09:31:43.417Z,1845.00
2019-02-23T09:32:43.386Z,1856.25
2019-02-23T09:33:43.359Z,1923.75
2019-02-23T09:34:43.327Z,1788.75
2019-02-23T09:35:43.301Z,1861.88
2019-02-23T09:36:43.272Z,1856.25
2019-02-23T09:37:43.243Z,1940.63
2019-02-23T09:38:43.216Z,1845.00
2019-02-23T09:39:43.191Z,1878.75
2019-02-23T09:40:43.159Z,1884.38
2019-02-23T09:41:43.134Z,1974.38
2019-02-23T09:42:43.104Z,1963.13
2019-02-23T09:43:43.074Z,1980.00
2019-02-23T09:44:43.051Z,1963.13
2019-02-23T09:45:43.022Z,2008.13
2019-02-23T09:46:42.939Z,2070.00
2019-02-23T09:47:42.913Z,2064.38
2019-02-23T09:48:42.885Z,2013.75
2019-02-23T09:49:42.860Z,2176.88
2019-02-23T09:50:42.836Z,2103.75
2019-02-23T09:51:42.804Z,2109.38
2019-02-23T09:52:42.778Z,2137.50
2019-02-23T09:53:42.754Z,2120.63
2019-02-23T09:54:42.727Z,2081.25
2019-02-23T09:55:42.700Z,2148.75
2019-02-23T09:56:42.673Z,2199.38
2019-02-23T09:57:42.649Z,2126.25
2019-02-23T09:58:42.621Z,2030.63
2019-02-23T09:59:42.594Z,2188.13
2019-02-23T10:00:42.569Z,2199.38
2019-02-23T10:01:42.543Z,2103.75
2019-02-23T10:02:42.517Z,2098.13
2019-02-23T10:03:42.489Z,2092.50
2019-02-23T10:04:42.466Z,2221.88
2019-02-23T10:05:42.440Z,2266.88
2019-02-23T10:06:42.421Z,2300.63
2019-02-23T10:07:42.386Z,2199.38
2019-02-23T10:08:42.360Z,2131.88
2019-02-23T10:09:42.333Z,2098.13
2019-02-23T10:10:42.314Z,2266.88
2019-02-23T10:11:42.288Z,2283.75
2019-02-23T10:12:42.258Z,2250.00
2019-02-23T10:13:42.231Z,2255.63
2019-02-23T10:14:42.206Z,2261.25
2019-02-23T10:15:42.177Z,2176.88
2019-02-23T10:16:42.156Z,2379.38
2019-02-23T10:17:42.130Z,2238.75
2019-02-23T10:18:42.104Z,2244.38
2019-02-23T10:19:42.076Z,2261.25
2019-02-23T10:20:42.052Z,2295.00
2019-02-23T10:21:42.028Z,2250.00
2019-02-23T10:22:42.059Z,2295.00
2019-02-23T10:23:42.032Z,2317.50
2019-02-23T10:24:42.008Z,2317.50
2019-02-23T10:25:41.928Z,2272.50
2019-02-23T10:26:41.900Z,2210.63
2019-02-23T10:27:41.929Z,2317.50
2019-02-23T10:28:41.853Z,2306.25
2019-02-23T10:29:41.882Z,2278.13
2019-02-23T10:30:41.856Z,2266.88
2019-02-23T10:31:41.776Z,2328.75
2019-02-23T10:32:41.806Z,2266.88
2019-02-23T10:33:47.570Z,2317.50
2019-02-23T10:34:41.754Z,2345.63
2019-02-23T10:35:41.731Z,2244.38
2019-02-23T10:36:41.705Z,2193.75
2019-02-23T10:37:41.681Z,1738.13
2019-02-23T10:38:41.657Z,1344.38
2019-02-23T10:39:41.630Z,1018.13
2019-02-23T10:40:41.608Z,984.38
2019-02-23T10:41:41.583Z,945.00
